sensor_id;sensor_type;location;lat;lon;timestamp;pressure;altitude;pressure_sealevel;temperature;humidity
65659;BME280;60181;53.258;6.932;2022-07-10T00:03:21;102739.97;;;20.59;54.44
65659;BME280;60181;53.258;6.932;2022-07-10T00:07:49;102735.56;;;20.59;54.56
65659;BME280;60181;53.258;6.932;2022-07-10T00:12:17;102732.37;;;20.58;54.17
65659;BME280;60181;53.258;6.932;2022-07-10T00:16:46;102732.52;;;20.57;53.81
65659;BME280;60181;53.258;6.932;2022-07-10T00:21:13;102732.75;;;20.56;53.80
65659;BME280;60181;53.258;6.932;2022-07-10T00:25:41;102731.07;;;20.54;54.15
65659;BME280;60181;53.258;6.932;2022-07-10T00:30:10;102728.97;;;20.53;54.17
65659;BME280;60181;53.258;6.932;2022-07-10T00:34:37;102725.45;;;20.52;54.09
65659;BME280;60181;53.258;6.932;2022-07-10T00:39:05;102721.86;;;20.51;54.04
65659;BME280;60181;53.258;6.932;2022-07-10T00:48:02;102714.16;;;20.49;53.77
65659;BME280;60181;53.258;6.932;2022-07-10T00:52:29;102710.99;;;20.48;53.79
65659;BME280;60181;53.258;6.932;2022-07-10T00:56:57;102706.41;;;20.47;53.76
65659;BME280;60181;53.258;6.932;2022-07-10T01:01:25;102702.64;;;20.47;53.84
65659;BME280;60181;53.258;6.932;2022-07-10T01:05:53;102699.61;;;20.46;53.86
65659;BME280;60181;53.258;6.932;2022-07-10T01:10:21;102697.53;;;20.46;53.88
65659;BME280;60181;53.258;6.932;2022-07-10T01:14:49;102694.87;;;20.45;53.78
65659;BME280;60181;53.258;6.932;2022-07-10T01:19:17;102693.21;;;20.45;53.69
65659;BME280;60181;53.258;6.932;2022-07-10T01:23:45;102690.36;;;20.45;53.59
65659;BME280;60181;53.258;6.932;2022-07-10T01:28:13;102686.01;;;20.44;53.45
65659;BME280;60181;53.258;6.932;2022-07-10T01:32:41;102680.51;;;20.43;53.18
65659;BME280;60181;53.258;6.932;2022-07-10T01:37:09;102674.68;;;20.42;52.92
65659;BME280;60181;53.258;6.932;2022-07-10T01:41:37;102670.32;;;20.41;52.87
65659;BME280;60181;53.258;6.932;2022-07-10T01:46:05;102666.15;;;20.40;52.83
65659;BME280;60181;53.258;6.932;2022-07-10T01:50:33;102662.05;;;20.39;53.05
65659;BME280;60181;53.258;6.932;2022-07-10T01:55:02;102660.06;;;20.39;53.23
65659;BME280;60181;53.258;6.932;2022-07-10T01:59:29;102658.56;;;20.38;53.29
65659;BME280;60181;53.258;6.932;2022-07-10T02:03:57;102655.71;;;20.37;54.31
65659;BME280;60181;53.258;6.932;2022-07-10T02:08:25;102651.99;;;20.35;54.67
65659;BME280;60181;53.258;6.932;2022-07-10T02:12:53;102648.99;;;20.33;53.65
65659;BME280;60181;53.258;6.932;2022-07-10T02:17:21;102646.39;;;20.32;54.61
65659;BME280;60181;53.258;6.932;2022-07-10T02:21:49;102643.26;;;20.30;54.95
65659;BME280;60181;53.258;6.932;2022-07-10T02:26:17;102640.50;;;20.29;54.93
65659;BME280;60181;53.258;6.932;2022-07-10T02:30:45;102635.55;;;20.27;55.01
65659;BME280;60181;53.258;6.932;2022-07-10T02:35:13;102629.75;;;20.27;53.79
65659;BME280;60181;53.258;6.932;2022-07-10T02:39:41;102626.28;;;20.28;53.75
65659;BME280;60181;53.258;6.932;2022-07-10T02:44:09;102622.95;;;20.28;54.15
65659;BME280;60181;53.258;6.932;2022-07-10T02:48:37;102621.20;;;20.29;53.44
65659;BME280;60181;53.258;6.932;2022-07-10T02:53:05;102619.52;;;20.28;54.48
65659;BME280;60181;53.258;6.932;2022-07-10T02:57:33;102619.43;;;20.27;54.78
65659;BME280;60181;53.258;6.932;2022-07-10T03:02:01;102619.15;;;20.25;53.41
65659;BME280;60181;53.258;6.932;2022-07-10T03:06:29;102618.74;;;20.25;52.82
65659;BME280;60181;53.258;6.932;2022-07-10T03:10:57;102617.22;;;20.26;52.75
65659;BME280;60181;53.258;6.932;2022-07-10T03:15:25;102616.33;;;20.27;52.58
65659;BME280;60181;53.258;6.932;2022-07-10T03:19:53;102615.70;;;20.27;52.49
65659;BME280;60181;53.258;6.932;2022-07-10T03:24:21;102614.70;;;20.27;52.53
65659;BME280;60181;53.258;6.932;2022-07-10T03:28:49;102613.59;;;20.27;52.46
65659;BME280;60181;53.258;6.932;2022-07-10T03:33:17;102612.17;;;20.27;52.57
65659;BME280;60181;53.258;6.932;2022-07-10T03:37:45;102608.02;;;20.27;53.47
65659;BME280;60181;53.258;6.932;2022-07-10T03:42:13;102605.21;;;20.27;53.48
65659;BME280;60181;53.258;6.932;2022-07-10T03:46:41;102604.14;;;20.28;53.83
65659;BME280;60181;53.258;6.932;2022-07-10T03:51:09;102602.83;;;20.29;54.19
65659;BME280;60181;53.258;6.932;2022-07-10T03:55:37;102602.08;;;20.30;54.42
65659;BME280;60181;53.258;6.932;2022-07-10T04:00:05;102601.44;;;20.31;54.63
65659;BME280;60181;53.258;6.932;2022-07-10T04:04:33;102601.34;;;20.31;54.84
65659;BME280;60181;53.258;6.932;2022-07-10T04:09:01;102600.84;;;20.31;55.01
65659;BME280;60181;53.258;6.932;2022-07-10T04:13:29;102600.34;;;20.32;55.15
65659;BME280;60181;53.258;6.932;2022-07-10T04:17:57;102599.71;;;20.32;55.28
65659;BME280;60181;53.258;6.932;2022-07-10T04:22:26;102598.82;;;20.34;55.18
65659;BME280;60181;53.258;6.932;2022-07-10T04:26:53;102598.82;;;20.39;54.87
65659;BME280;60181;53.258;6.932;2022-07-10T04:31:21;102598.29;;;20.43;55.21
65659;BME280;60181;53.258;6.932;2022-07-10T04:35:49;102598.00;;;20.46;55.27
65659;BME280;60181;53.258;6.932;2022-07-10T04:40:17;102596.09;;;20.47;55.66
65659;BME280;60181;53.258;6.932;2022-07-10T04:44:45;102594.87;;;20.47;55.90
65659;BME280;60181;53.258;6.932;2022-07-10T04:49:13;102593.26;;;20.47;56.06
65659;BME280;60181;53.258;6.932;2022-07-10T04:53:41;102592.19;;;20.47;56.16
65659;BME280;60181;53.258;6.932;2022-07-10T04:58:09;102591.03;;;20.46;56.20
65659;BME280;60181;53.258;6.932;2022-07-10T05:02:37;102589.77;;;20.47;56.27
65659;BME280;60181;53.258;6.932;2022-07-10T05:07:05;102588.43;;;20.46;56.42
65659;BME280;60181;53.258;6.932;2022-07-10T05:11:33;102589.50;;;20.46;56.49
65659;BME280;60181;53.258;6.932;2022-07-10T05:16:01;102592.50;;;20.45;56.55
65659;BME280;60181;53.258;6.932;2022-07-10T05:20:29;102594.81;;;20.44;56.60
65659;BME280;60181;53.258;6.932;2022-07-10T05:24:57;102598.14;;;20.44;56.69
65659;BME280;60181;53.258;6.932;2022-07-10T05:29:25;102599.46;;;20.45;56.58
65659;BME280;60181;53.258;6.932;2022-07-10T05:33:53;102599.01;;;20.46;56.90
65659;BME280;60181;53.258;6.932;2022-07-10T05:38:21;102597.19;;;20.48;57.22
65659;BME280;60181;53.258;6.932;2022-07-10T05:42:49;102595.56;;;20.50;56.86
65659;BME280;60181;53.258;6.932;2022-07-10T05:47:17;102594.25;;;20.51;56.98
65659;BME280;60181;53.258;6.932;2022-07-10T05:51:45;102594.26;;;20.52;57.29
65659;BME280;60181;53.258;6.932;2022-07-10T05:56:13;102594.89;;;20.54;57.80
65659;BME280;60181;53.258;6.932;2022-07-10T06:00:41;102595.92;;;20.56;57.81
65659;BME280;60181;53.258;6.932;2022-07-10T06:05:09;102598.17;;;20.58;57.34
65659;BME280;60181;53.258;6.932;2022-07-10T06:09:37;102601.11;;;20.59;57.34
65659;BME280;60181;53.258;6.932;2022-07-10T06:14:05;102604.11;;;20.58;57.33
65659;BME280;60181;53.258;6.932;2022-07-10T06:18:33;102606.99;;;20.58;57.27
65659;BME280;60181;53.258;6.932;2022-07-10T06:23:01;102608.50;;;20.58;57.28
65659;BME280;60181;53.258;6.932;2022-07-10T06:27:29;102608.74;;;20.57;57.28
65659;BME280;60181;53.258;6.932;2022-07-10T06:31:57;102608.83;;;20.56;57.33
65659;BME280;60181;53.258;6.932;2022-07-10T06:36:25;102608.54;;;20.56;57.35
65659;BME280;60181;53.258;6.932;2022-07-10T06:40:53;102608.56;;;20.55;57.30
65659;BME280;60181;53.258;6.932;2022-07-10T06:45:21;102609.47;;;20.56;57.28
65659;BME280;60181;53.258;6.932;2022-07-10T06:49:49;102609.81;;;20.57;57.05
65659;BME280;60181;53.258;6.932;2022-07-10T06:54:17;102609.45;;;20.60;56.90
65659;BME280;60181;53.258;6.932;2022-07-10T06:58:45;102609.31;;;20.63;57.00
65659;BME280;60181;53.258;6.932;2022-07-10T07:03:13;102609.83;;;20.64;57.01
65659;BME280;60181;53.258;6.932;2022-07-10T07:07:41;102610.51;;;20.65;57.03
65659;BME280;60181;53.258;6.932;2022-07-10T07:12:09;102611.62;;;20.65;57.04
65659;BME280;60181;53.258;6.932;2022-07-10T07:16:37;102614.29;;;20.66;56.99
65659;BME280;60181;53.258;6.932;2022-07-10T07:21:05;102615.19;;;20.70;56.71
65659;BME280;60181;53.258;6.932;2022-07-10T07:25:33;102615.33;;;20.74;56.64
65659;BME280;60181;53.258;6.932;2022-07-10T07:30:04;102616.26;;;20.80;56.61
65659;BME280;60181;53.258;6.932;2022-07-10T07:34:29;102615.44;;;20.85;56.41
65659;BME280;60181;53.258;6.932;2022-07-10T07:38:57;102614.33;;;20.90;56.28
65659;BME280;60181;53.258;6.932;2022-07-10T07:43:25;102614.10;;;20.98;55.62
65659;BME280;60181;53.258;6.932;2022-07-10T07:47:54;102614.01;;;21.03;56.25
65659;BME280;60181;53.258;6.932;2022-07-10T07:52:21;102614.54;;;21.06;56.28
65659;BME280;60181;53.258;6.932;2022-07-10T07:56:49;102614.81;;;21.06;56.49
65659;BME280;60181;53.258;6.932;2022-07-10T08:01:17;102614.81;;;21.06;56.49
65659;BME280;60181;53.258;6.932;2022-07-10T08:05:45;102613.44;;;21.05;56.70
65659;BME280;60181;53.258;6.932;2022-07-10T08:10:14;102613.24;;;21.02;56.84
65659;BME280;60181;53.258;6.932;2022-07-10T08:14:41;102612.61;;;20.99;56.85
65659;BME280;60181;53.258;6.932;2022-07-10T08:19:09;102611.94;;;20.97;56.79
65659;BME280;60181;53.258;6.932;2022-07-10T08:23:37;102611.77;;;20.96;56.81
65659;BME280;60181;53.258;6.932;2022-07-10T08:28:05;102612.16;;;20.95;56.88
65659;BME280;60181;53.258;6.932;2022-07-10T08:32:33;102612.95;;;20.94;56.90
65659;BME280;60181;53.258;6.932;2022-07-10T08:37:01;102614.88;;;20.92;57.01
65659;BME280;60181;53.258;6.932;2022-07-10T08:41:29;102616.75;;;20.90;57.07
65659;BME280;60181;53.258;6.932;2022-07-10T08:45:57;102618.30;;;20.88;57.10
65659;BME280;60181;53.258;6.932;2022-07-10T08:50:25;102618.90;;;20.87;57.08
65659;BME280;60181;53.258;6.932;2022-07-10T08:54:53;102618.71;;;20.87;56.96
65659;BME280;60181;53.258;6.932;2022-07-10T08:59:21;102618.41;;;20.88;56.87
65659;BME280;60181;53.258;6.932;2022-07-10T09:03:49;102617.93;;;20.91;56.66
65659;BME280;60181;53.258;6.932;2022-07-10T09:08:26;102617.16;;;20.95;56.50
65659;BME280;60181;53.258;6.932;2022-07-10T09:12:49;102616.44;;;20.99;56.42
65659;BME280;60181;53.258;6.932;2022-07-10T09:17:13;102616.25;;;21.04;56.39
65659;BME280;60181;53.258;6.932;2022-07-10T09:21:41;102616.39;;;21.07;56.50
65659;BME280;60181;53.258;6.932;2022-07-10T09:26:09;102616.65;;;21.08;56.67
65659;BME280;60181;53.258;6.932;2022-07-10T09:30:37;102617.05;;;21.07;56.80
65659;BME280;60181;53.258;6.932;2022-07-10T09:35:05;102617.30;;;21.07;56.69
65659;BME280;60181;53.258;6.932;2022-07-10T09:39:33;102617.87;;;21.07;56.74
65659;BME280;60181;53.258;6.932;2022-07-10T09:44:04;102618.37;;;21.06;56.94
65659;BME280;60181;53.258;6.932;2022-07-10T09:48:29;102621.00;;;21.04;57.03
65659;BME280;60181;53.258;6.932;2022-07-10T09:52:57;102623.06;;;21.01;57.06
65659;BME280;60181;53.258;6.932;2022-07-10T09:57:25;102624.69;;;20.99;57.06
65659;BME280;60181;53.258;6.932;2022-07-10T10:01:53;102627.00;;;20.98;57.05
65659;BME280;60181;53.258;6.932;2022-07-10T10:06:20;102627.92;;;20.98;57.00
65659;BME280;60181;53.258;6.932;2022-07-10T10:10:49;102628.66;;;20.97;57.10
65659;BME280;60181;53.258;6.932;2022-07-10T10:15:16;102630.24;;;20.96;57.17
65659;BME280;60181;53.258;6.932;2022-07-10T10:19:44;102630.71;;;20.95;57.16
65659;BME280;60181;53.258;6.932;2022-07-10T10:24:12;102630.65;;;20.95;57.03
65659;BME280;60181;53.258;6.932;2022-07-10T10:28:40;102629.24;;;20.96;57.02
65659;BME280;60181;53.258;6.932;2022-07-10T10:37:37;102631.02;;;20.98;57.20
65659;BME280;60181;53.258;6.932;2022-07-10T10:42:04;102630.46;;;21.01;56.92
65659;BME280;60181;53.258;6.932;2022-07-10T10:46:33;102628.94;;;21.04;56.71
65659;BME280;60181;53.258;6.932;2022-07-10T10:51:00;102627.16;;;21.08;56.84
65659;BME280;60181;53.258;6.932;2022-07-10T10:55:28;102625.84;;;21.10;56.76
65659;BME280;60181;53.258;6.932;2022-07-10T10:59:57;102625.23;;;21.13;56.76
65659;BME280;60181;53.258;6.932;2022-07-10T11:04:24;102623.35;;;21.17;56.58
65659;BME280;60181;53.258;6.932;2022-07-10T11:08:52;102618.91;;;21.21;56.51
65659;BME280;60181;53.258;6.932;2022-07-10T11:13:20;102614.61;;;21.23;56.62
65659;BME280;60181;53.258;6.932;2022-07-10T11:17:49;102613.27;;;21.23;56.89
65659;BME280;60181;53.258;6.932;2022-07-10T11:22:27;102614.50;;;21.21;57.17
65659;BME280;60181;53.258;6.932;2022-07-10T11:31:12;102618.81;;;21.15;57.29
65659;BME280;60181;53.258;6.932;2022-07-10T11:35:40;102620.73;;;21.13;57.25
65659;BME280;60181;53.258;6.932;2022-07-10T11:40:11;102621.94;;;21.11;57.29
65659;BME280;60181;53.258;6.932;2022-07-10T11:44:36;102622.17;;;21.11;57.28
65659;BME280;60181;53.258;6.932;2022-07-10T11:49:05;102623.68;;;21.10;57.42
65659;BME280;60181;53.258;6.932;2022-07-10T11:53:32;102626.49;;;21.08;57.57
65659;BME280;60181;53.258;6.932;2022-07-10T11:58:00;102628.53;;;21.06;57.59
65659;BME280;60181;53.258;6.932;2022-07-10T12:02:28;102629.76;;;21.05;57.46
65659;BME280;60181;53.258;6.932;2022-07-10T12:06:57;102630.26;;;21.05;57.46
65659;BME280;60181;53.258;6.932;2022-07-10T12:11:24;102631.91;;;21.04;57.60
65659;BME280;60181;53.258;6.932;2022-07-10T12:15:52;102632.35;;;21.03;57.60
65659;BME280;60181;53.258;6.932;2022-07-10T12:20:20;102632.67;;;21.04;57.50
65659;BME280;60181;53.258;6.932;2022-07-10T12:24:48;102631.59;;;21.05;57.42
65659;BME280;60181;53.258;6.932;2022-07-10T12:29:20;102630.55;;;21.06;57.45
65659;BME280;60181;53.258;6.932;2022-07-10T12:33:44;102630.55;;;21.06;57.61
65659;BME280;60181;53.258;6.932;2022-07-10T12:38:19;102631.69;;;21.05;57.81
65659;BME280;60181;53.258;6.932;2022-07-10T12:42:40;102631.25;;;21.03;57.76
65659;BME280;60181;53.258;6.932;2022-07-10T12:47:09;102630.09;;;21.03;57.66
65659;BME280;60181;53.258;6.932;2022-07-10T12:51:45;102629.86;;;21.04;57.54
65659;BME280;60181;53.258;6.932;2022-07-10T12:56:05;102629.11;;;21.06;57.50
65659;BME280;60181;53.258;6.932;2022-07-10T13:00:33;102627.62;;;21.07;57.57
65659;BME280;60181;53.258;6.932;2022-07-10T13:05:00;102625.12;;;21.07;57.72
65659;BME280;60181;53.258;6.932;2022-07-10T13:09:28;102624.28;;;21.06;57.82
65659;BME280;60181;53.258;6.932;2022-07-10T13:13:56;102621.03;;;21.04;57.87
65659;BME280;60181;53.258;6.932;2022-07-10T13:18:25;102620.17;;;21.04;57.82
65659;BME280;60181;53.258;6.932;2022-07-10T13:22:52;102618.75;;;21.04;57.72
65659;BME280;60181;53.258;6.932;2022-07-10T13:27:20;102617.36;;;21.04;57.71
65659;BME280;60181;53.258;6.932;2022-07-10T13:31:48;102617.18;;;21.04;57.89
65659;BME280;60181;53.258;6.932;2022-07-10T13:36:16;102617.82;;;21.02;58.05
65659;BME280;60181;53.258;6.932;2022-07-10T13:40:44;102617.54;;;21.00;58.66
65659;BME280;60181;53.258;6.932;2022-07-10T13:45:12;102618.03;;;20.99;58.80
65659;BME280;60181;53.258;6.932;2022-07-10T13:49:40;102618.79;;;20.99;58.53
65659;BME280;60181;53.258;6.932;2022-07-10T13:54:08;102617.61;;;20.99;58.54
65659;BME280;60181;53.258;6.932;2022-07-10T13:58:36;102616.11;;;20.99;58.69
65659;BME280;60181;53.258;6.932;2022-07-10T14:03:04;102614.95;;;20.98;58.42
65659;BME280;60181;53.258;6.932;2022-07-10T14:07:32;102614.70;;;20.99;58.46
65659;BME280;60181;53.258;6.932;2022-07-10T14:12:00;102614.54;;;20.99;58.39
65659;BME280;60181;53.258;6.932;2022-07-10T14:16:28;102616.30;;;20.98;58.64
65659;BME280;60181;53.258;6.932;2022-07-10T14:20:56;102617.43;;;20.97;58.58
65659;BME280;60181;53.258;6.932;2022-07-10T14:25:24;102618.26;;;20.98;58.46
65659;BME280;60181;53.258;6.932;2022-07-10T14:29:52;102617.79;;;20.99;58.24
65659;BME280;60181;53.258;6.932;2022-07-10T14:34:20;102617.72;;;21.00;58.34
65659;BME280;60181;53.258;6.932;2022-07-10T14:38:48;102619.21;;;21.00;58.42
65659;BME280;60181;53.258;6.932;2022-07-10T14:43:16;102620.03;;;20.99;58.56
65659;BME280;60181;53.258;6.932;2022-07-10T14:47:44;102620.13;;;20.98;58.59
65659;BME280;60181;53.258;6.932;2022-07-10T14:52:12;102619.93;;;20.97;58.59
65659;BME280;60181;53.258;6.932;2022-07-10T14:56:40;102618.92;;;20.96;58.64
65659;BME280;60181;53.258;6.932;2022-07-10T15:01:08;102615.98;;;20.96;58.65
65659;BME280;60181;53.258;6.932;2022-07-10T15:05:36;102613.07;;;20.96;58.52
65659;BME280;60181;53.258;6.932;2022-07-10T15:10:04;102608.59;;;20.97;58.41
65659;BME280;60181;53.258;6.932;2022-07-10T15:14:32;102603.80;;;20.98;58.31
65659;BME280;60181;53.258;6.932;2022-07-10T15:19:00;102599.96;;;21.01;58.31
65659;BME280;60181;53.258;6.932;2022-07-10T15:23:28;102595.85;;;21.02;58.35
65659;BME280;60181;53.258;6.932;2022-07-10T15:27:56;102592.26;;;21.03;58.35
65659;BME280;60181;53.258;6.932;2022-07-10T15:32:24;102588.71;;;21.04;58.37
65659;BME280;60181;53.258;6.932;2022-07-10T15:36:52;102584.36;;;21.05;58.42
65659;BME280;60181;53.258;6.932;2022-07-10T15:41:20;102580.96;;;21.04;58.90
65659;BME280;60181;53.258;6.932;2022-07-10T15:45:48;102578.09;;;21.04;59.32
65659;BME280;60181;53.258;6.932;2022-07-10T15:50:16;102572.36;;;21.04;58.90
65659;BME280;60181;53.258;6.932;2022-07-10T15:54:44;102566.37;;;21.03;58.82
65659;BME280;60181;53.258;6.932;2022-07-10T15:59:12;102560.84;;;21.03;58.96
65659;BME280;60181;53.258;6.932;2022-07-10T16:03:40;102559.19;;;21.02;59.10
65659;BME280;60181;53.258;6.932;2022-07-10T16:08:08;102557.78;;;21.02;58.87
65659;BME280;60181;53.258;6.932;2022-07-10T16:12:36;102555.18;;;21.01;58.90
65659;BME280;60181;53.258;6.932;2022-07-10T16:17:04;102551.81;;;21.01;58.88
65659;BME280;60181;53.258;6.932;2022-07-10T16:21:32;102547.83;;;21.00;58.87
65659;BME280;60181;53.258;6.932;2022-07-10T16:26:00;102544.32;;;21.00;58.87
65659;BME280;60181;53.258;6.932;2022-07-10T16:30:28;102540.47;;;20.99;58.97
65659;BME280;60181;53.258;6.932;2022-07-10T16:34:56;102537.57;;;20.99;58.90
65659;BME280;60181;53.258;6.932;2022-07-10T16:39:24;102535.47;;;20.98;58.96
65659;BME280;60181;53.258;6.932;2022-07-10T16:43:52;102533.39;;;20.98;59.04
65659;BME280;60181;53.258;6.932;2022-07-10T16:48:20;102530.37;;;20.97;58.98
65659;BME280;60181;53.258;6.932;2022-07-10T16:52:48;102529.70;;;20.97;59.04
65659;BME280;60181;53.258;6.932;2022-07-10T16:57:16;102528.37;;;20.97;59.14
65659;BME280;60181;53.258;6.932;2022-07-10T17:01:44;102527.44;;;20.96;59.33
65659;BME280;60181;53.258;6.932;2022-07-10T17:06:12;102526.88;;;20.95;59.30
65659;BME280;60181;53.258;6.932;2022-07-10T17:10:41;102525.61;;;20.94;59.33
65659;BME280;60181;53.258;6.932;2022-07-10T17:15:08;102524.26;;;20.93;59.36
65659;BME280;60181;53.258;6.932;2022-07-10T17:19:36;102523.33;;;20.93;59.38
65659;BME280;60181;53.258;6.932;2022-07-10T17:24:04;102522.83;;;20.92;59.43
65659;BME280;60181;53.258;6.932;2022-07-10T17:28:32;102520.64;;;20.91;59.38
65659;BME280;60181;53.258;6.932;2022-07-10T17:33:00;102518.81;;;20.91;59.41
65659;BME280;60181;53.258;6.932;2022-07-10T17:37:28;102517.75;;;20.92;60.28
65659;BME280;60181;53.258;6.932;2022-07-10T17:41:56;102515.09;;;20.94;61.75
65659;BME280;60181;53.258;6.932;2022-07-10T17:46:24;102513.81;;;20.96;64.24
65659;BME280;60181;53.258;6.932;2022-07-10T17:50:52;102512.32;;;20.98;63.83
65659;BME280;60181;53.258;6.932;2022-07-10T17:55:20;102510.06;;;20.98;63.29
65659;BME280;60181;53.258;6.932;2022-07-10T17:59:48;102508.50;;;20.97;62.55
65659;BME280;60181;53.258;6.932;2022-07-10T18:04:16;102507.56;;;20.97;62.97
65659;BME280;60181;53.258;6.932;2022-07-10T18:08:44;102505.80;;;20.95;62.51
65659;BME280;60181;53.258;6.932;2022-07-10T18:13:12;102503.53;;;20.94;62.23
65659;BME280;60181;53.258;6.932;2022-07-10T18:17:40;102501.25;;;20.93;62.25
65659;BME280;60181;53.258;6.932;2022-07-10T18:22:08;102498.66;;;20.91;62.09
65659;BME280;60181;53.258;6.932;2022-07-10T18:26:36;102495.47;;;20.90;62.09
65659;BME280;60181;53.258;6.932;2022-07-10T18:31:04;102490.88;;;20.89;62.01
65659;BME280;60181;53.258;6.932;2022-07-10T18:35:32;102487.45;;;20.88;62.32
65659;BME280;60181;53.258;6.932;2022-07-10T18:40:00;102485.36;;;20.87;61.87
65659;BME280;60181;53.258;6.932;2022-07-10T18:44:28;102484.35;;;20.86;61.85
65659;BME280;60181;53.258;6.932;2022-07-10T18:48:56;102483.17;;;20.85;61.67
65659;BME280;60181;53.258;6.932;2022-07-10T18:53:24;102483.15;;;20.83;61.66
65659;BME280;60181;53.258;6.932;2022-07-10T18:57:52;102483.64;;;20.82;61.43
65659;BME280;60181;53.258;6.932;2022-07-10T19:02:20;102482.96;;;20.81;61.48
65659;BME280;60181;53.258;6.932;2022-07-10T19:06:48;102483.45;;;20.80;61.54
65659;BME280;60181;53.258;6.932;2022-07-10T19:11:16;102484.02;;;20.79;61.54
65659;BME280;60181;53.258;6.932;2022-07-10T19:15:44;102484.25;;;20.78;61.48
65659;BME280;60181;53.258;6.932;2022-07-10T19:20:12;102485.08;;;20.77;61.49
65659;BME280;60181;53.258;6.932;2022-07-10T19:24:40;102486.56;;;20.76;61.45
65659;BME280;60181;53.258;6.932;2022-07-10T19:29:08;102487.34;;;20.75;61.45
65659;BME280;60181;53.258;6.932;2022-07-10T19:33:36;102488.44;;;20.74;61.41
65659;BME280;60181;53.258;6.932;2022-07-10T19:38:04;102487.43;;;20.73;61.33
65659;BME280;60181;53.258;6.932;2022-07-10T19:42:32;102486.66;;;20.72;61.34
65659;BME280;60181;53.258;6.932;2022-07-10T19:47:00;102486.22;;;20.71;61.30
65659;BME280;60181;53.258;6.932;2022-07-10T19:51:28;102487.39;;;20.71;62.04
65659;BME280;60181;53.258;6.932;2022-07-10T19:55:56;102487.89;;;20.71;62.01
65659;BME280;60181;53.258;6.932;2022-07-10T20:00:24;102488.72;;;20.71;61.66
65659;BME280;60181;53.258;6.932;2022-07-10T20:04:52;102489.15;;;20.71;61.74
65659;BME280;60181;53.258;6.932;2022-07-10T20:09:20;102489.62;;;20.70;61.67
65659;BME280;60181;53.258;6.932;2022-07-10T20:13:48;102490.80;;;20.70;61.52
65659;BME280;60181;53.258;6.932;2022-07-10T20:18:16;102493.60;;;20.69;61.64
65659;BME280;60181;53.258;6.932;2022-07-10T20:22:44;102495.32;;;20.68;61.59
65659;BME280;60181;53.258;6.932;2022-07-10T20:27:12;102497.92;;;20.68;61.56
65659;BME280;60181;53.258;6.932;2022-07-10T20:31:40;102499.76;;;20.67;61.50
65659;BME280;60181;53.258;6.932;2022-07-10T20:36:08;102502.39;;;20.67;61.54
65659;BME280;60181;53.258;6.932;2022-07-10T20:40:36;102503.59;;;20.69;62.45
65659;BME280;60181;53.258;6.932;2022-07-10T20:45:04;102504.86;;;20.70;61.65
65659;BME280;60181;53.258;6.932;2022-07-10T20:49:32;102506.04;;;20.71;61.98
65659;BME280;60181;53.258;6.932;2022-07-10T20:54:00;102505.47;;;20.71;62.14
65659;BME280;60181;53.258;6.932;2022-07-10T20:58:28;102506.13;;;20.71;62.19
65659;BME280;60181;53.258;6.932;2022-07-10T21:02:56;102506.03;;;20.70;62.44
65659;BME280;60181;53.258;6.932;2022-07-10T21:07:24;102506.53;;;20.70;62.51
65659;BME280;60181;53.258;6.932;2022-07-10T21:11:52;102504.50;;;20.69;62.54
65659;BME280;60181;53.258;6.932;2022-07-10T21:16:20;102503.27;;;20.68;62.79
65659;BME280;60181;53.258;6.932;2022-07-10T21:20:48;102502.25;;;20.68;62.70
65659;BME280;60181;53.258;6.932;2022-07-10T21:25:16;102502.10;;;20.67;62.92
65659;BME280;60181;53.258;6.932;2022-07-10T21:29:44;102503.42;;;20.67;62.94
65659;BME280;60181;53.258;6.932;2022-07-10T21:34:12;102503.67;;;20.67;62.96
65659;BME280;60181;53.258;6.932;2022-07-10T21:38:40;102504.35;;;20.67;62.71
65659;BME280;60181;53.258;6.932;2022-07-10T21:43:08;102505.57;;;20.67;62.95
65659;BME280;60181;53.258;6.932;2022-07-10T21:47:36;102506.15;;;20.67;63.03
65659;BME280;60181;53.258;6.932;2022-07-10T21:52:04;102506.21;;;20.66;62.95
65659;BME280;60181;53.258;6.932;2022-07-10T21:56:31;102506.63;;;20.66;62.98
65659;BME280;60181;53.258;6.932;2022-07-10T22:00:59;102507.30;;;20.65;63.18
65659;BME280;60181;53.258;6.932;2022-07-10T22:05:27;102508.53;;;20.65;63.11
65659;BME280;60181;53.258;6.932;2022-07-10T22:09:56;102508.70;;;20.64;63.24
65659;BME280;60181;53.258;6.932;2022-07-10T22:14:23;102508.35;;;20.64;62.87
65659;BME280;60181;53.258;6.932;2022-07-10T22:18:51;102507.60;;;20.63;62.81
65659;BME280;60181;53.258;6.932;2022-07-10T22:23:19;102507.18;;;20.62;62.79
65659;BME280;60181;53.258;6.932;2022-07-10T22:27:48;102506.91;;;20.61;62.61
65659;BME280;60181;53.258;6.932;2022-07-10T22:32:15;102506.04;;;20.60;62.59
65659;BME280;60181;53.258;6.932;2022-07-10T22:36:43;102506.23;;;20.60;62.88
65659;BME280;60181;53.258;6.932;2022-07-10T22:41:11;102506.80;;;20.60;62.94
65659;BME280;60181;53.258;6.932;2022-07-10T22:45:39;102507.63;;;20.59;62.86
65659;BME280;60181;53.258;6.932;2022-07-10T22:50:08;102507.39;;;20.58;62.43
65659;BME280;60181;53.258;6.932;2022-07-10T22:54:35;102507.78;;;20.58;62.21
65659;BME280;60181;53.258;6.932;2022-07-10T22:59:03;102507.52;;;20.56;63.80
65659;BME280;60181;53.258;6.932;2022-07-10T23:03:31;102508.57;;;20.54;64.43
65659;BME280;60181;53.258;6.932;2022-07-10T23:07:59;102509.28;;;20.51;64.32
65659;BME280;60181;53.258;6.932;2022-07-10T23:12:27;102509.89;;;20.48;63.93
65659;BME280;60181;53.258;6.932;2022-07-10T23:16:55;102510.53;;;20.45;64.21
65659;BME280;60181;53.258;6.932;2022-07-10T23:21:23;102509.80;;;20.42;64.05
65659;BME280;60181;53.258;6.932;2022-07-10T23:25:51;102508.48;;;20.42;62.29
65659;BME280;60181;53.258;6.932;2022-07-10T23:30:19;102506.38;;;20.41;62.86
65659;BME280;60181;53.258;6.932;2022-07-10T23:34:48;102505.04;;;20.41;64.02